sensor_id;sensor_type;location;lat;lon;timestamp;pressure;altitude;pressure_sealevel;temperature
12126;BMP180;6126;57.908;16.490;2022-08-25T00:01:57;102508.25;;;12.59
12126;BMP180;6126;57.908;16.490;2022-08-25T00:04:25;102507.38;;;12.60
12126;BMP180;6126;57.908;16.490;2022-08-25T00:06:52;102508.25;;;12.59
12126;BMP180;6126;57.908;16.490;2022-08-25T00:09:23;102509.13;;;12.60
12126;BMP180;6126;57.908;16.490;2022-08-25T00:11:49;102508.22;;;12.61
12126;BMP180;6126;57.908;16.490;2022-08-25T00:14:21;102501.19;;;12.61
12126;BMP180;6126;57.908;16.490;2022-08-25T00:16:48;102514.31;;;12.61
12126;BMP180;6126;57.908;16.490;2022-08-25T00:19:23;102512.69;;;12.57
12126;BMP180;6126;57.908;16.490;2022-08-25T00:21:50;102510.09;;;12.54
12126;BMP180;6126;57.908;16.490;2022-08-25T00:24:18;102512.81;;;12.51
12126;BMP180;6126;57.908;16.490;2022-08-25T00:26:49;102511.03;;;12.52
12126;BMP180;6126;57.908;16.490;2022-08-25T00:29:16;102508.47;;;12.50
12126;BMP180;6126;57.908;16.490;2022-08-25T00:31:43;102501.50;;;12.49
12126;BMP180;6126;57.908;16.490;2022-08-25T00:34:15;102502.38;;;12.48
12126;BMP180;6126;57.908;16.490;2022-08-25T00:36:42;102508.53;;;12.47
12126;BMP180;6126;57.908;16.490;2022-08-25T00:39:09;102506.78;;;12.46
12126;BMP180;6126;57.908;16.490;2022-08-25T00:41:39;102506.88;;;12.43
12126;BMP180;6126;57.908;16.490;2022-08-25T00:44:09;102502.53;;;12.42
12126;BMP180;6126;57.908;16.490;2022-08-25T00:46:44;102506.88;;;12.43
12126;BMP180;6126;57.908;16.490;2022-08-25T00:49:44;102500.78;;;12.43
12126;BMP180;6126;57.908;16.490;2022-08-25T00:54:54;102499.91;;;12.42
12126;BMP180;6126;57.908;16.490;2022-08-25T00:57:33;102505.22;;;12.39
12126;BMP180;6126;57.908;16.490;2022-08-25T01:00:13;102509.66;;;12.36
12126;BMP180;6126;57.908;16.490;2022-08-25T01:02:40;102511.50;;;12.32
12126;BMP180;6126;57.908;16.490;2022-08-25T01:05:07;102508.88;;;12.32
12126;BMP180;6126;57.908;16.490;2022-08-25T01:07:33;102519.38;;;12.32
12126;BMP180;6126;57.908;16.490;2022-08-25T01:10:00;102510.59;;;12.33
12126;BMP180;6126;57.908;16.490;2022-08-25T01:12:26;102509.66;;;12.36
12126;BMP180;6126;57.908;16.490;2022-08-25T01:14:53;102513.19;;;12.36
12126;BMP180;6126;57.908;16.490;2022-08-25T01:17:21;102509.72;;;12.33
12126;BMP180;6126;57.908;16.490;2022-08-25T01:19:47;102515.91;;;12.31
12126;BMP180;6126;57.908;16.490;2022-08-25T01:22:13;102508.13;;;12.28
12126;BMP180;6126;57.908;16.490;2022-08-25T01:25:03;102510.81;;;12.25
12126;BMP180;6126;57.908;16.490;2022-08-25T01:27:29;102500.41;;;12.22
12126;BMP180;6126;57.908;16.490;2022-08-25T01:29:55;102510.03;;;12.21
12126;BMP180;6126;57.908;16.490;2022-08-25T01:32:22;102512.59;;;12.23
12126;BMP180;6126;57.908;16.490;2022-08-25T01:34:48;102509.09;;;12.24
12126;BMP180;6126;57.908;16.490;2022-08-25T01:37:15;102507.28;;;12.26
12126;BMP180;6126;57.908;16.490;2022-08-25T01:39:42;102498.59;;;12.24
12126;BMP180;6126;57.908;16.490;2022-08-25T01:45:16;102496.16;;;12.16
12126;BMP180;6126;57.908;16.490;2022-08-25T01:47:42;102512.81;;;12.14
12126;BMP180;6126;57.908;16.490;2022-08-25T01:50:08;102506.72;;;12.12
12126;BMP180;6126;57.908;16.490;2022-08-25T01:55:36;102507.41;;;12.20
12126;BMP180;6126;57.908;16.490;2022-08-25T01:58:23;102509.91;;;12.26
12126;BMP180;6126;57.908;16.490;2022-08-25T02:00:53;102516.78;;;12.31
12126;BMP180;6126;57.908;16.490;2022-08-25T02:03:21;102513.28;;;12.31
12126;BMP180;6126;57.908;16.490;2022-08-25T02:05:47;102512.47;;;12.29
12126;BMP180;6126;57.908;16.490;2022-08-25T02:08:13;102503.84;;;12.24
12126;BMP180;6126;57.908;16.490;2022-08-25T02:10:40;102504.81;;;12.20
12126;BMP180;6126;57.908;16.490;2022-08-25T02:13:07;102514.50;;;12.16
12126;BMP180;6126;57.908;16.490;2022-08-25T02:15:34;102506.59;;;12.18
12126;BMP180;6126;57.908;16.490;2022-08-25T02:18:01;102500.53;;;12.16
12126;BMP180;6126;57.908;16.490;2022-08-25T02:20:27;102503.16;;;12.16
12126;BMP180;6126;57.908;16.490;2022-08-25T02:22:53;102509.34;;;12.12
12126;BMP180;6126;57.908;16.490;2022-08-25T02:25:19;102510.28;;;12.09
12126;BMP180;6126;57.908;16.490;2022-08-25T02:27:45;102505.13;;;12.05
12126;BMP180;6126;57.908;16.490;2022-08-25T02:30:13;102510.34;;;12.06
12126;BMP180;6126;57.908;16.490;2022-08-25T02:32:39;102508.63;;;12.05
12126;BMP180;6126;57.908;16.490;2022-08-25T02:35:06;102514.81;;;12.03
12126;BMP180;6126;57.908;16.490;2022-08-25T02:37:32;102513.06;;;12.02
12126;BMP180;6126;57.908;16.490;2022-08-25T02:39:58;102507.88;;;12.01
12126;BMP180;6126;57.908;16.490;2022-08-25T02:42:25;102507.81;;;12.02
12126;BMP180;6126;57.908;16.490;2022-08-25T02:44:52;102513.06;;;12.02
12126;BMP180;6126;57.908;16.490;2022-08-25T02:47:19;102511.34;;;12.01
12126;BMP180;6126;57.908;16.490;2022-08-25T02:49:47;102511.19;;;12.07
12126;BMP180;6126;57.908;16.490;2022-08-25T02:52:14;102511.09;;;12.13
12126;BMP180;6126;57.908;16.490;2022-08-25T02:54:40;102517.06;;;12.18
12126;BMP180;6126;57.908;16.490;2022-08-25T02:57:06;102503.09;;;12.19
12126;BMP180;6126;57.908;16.490;2022-08-25T02:59:32;102510.13;;;12.17
12126;BMP180;6126;57.908;16.490;2022-08-25T03:01:59;102508.50;;;12.11
12126;BMP180;6126;57.908;16.490;2022-08-25T03:04:25;102499.84;;;12.06
12126;BMP180;6126;57.908;16.490;2022-08-25T03:06:51;102500.84;;;12.01
12126;BMP180;6126;57.908;16.490;2022-08-25T03:09:17;102507.03;;;11.97
12126;BMP180;6126;57.908;16.490;2022-08-25T03:11:43;102501.84;;;11.96
12126;BMP180;6126;57.908;16.490;2022-08-25T03:14:09;102507.94;;;11.96
12126;BMP180;6126;57.908;16.490;2022-08-25T03:16:36;102509.72;;;11.96
12126;BMP180;6126;57.908;16.490;2022-08-25T03:19:02;102508.84;;;11.95
12126;BMP180;6126;57.908;16.490;2022-08-25T03:21:29;102505.25;;;11.99
12126;BMP180;6126;57.908;16.490;2022-08-25T03:23:57;102500.88;;;12.00
12126;BMP180;6126;57.908;16.490;2022-08-25T03:26:23;102500.09;;;11.95
12126;BMP180;6126;57.908;16.490;2022-08-25T03:29:08;102504.56;;;11.91
12126;BMP180;6126;57.908;16.490;2022-08-25T03:31:36;102501.09;;;11.89
12126;BMP180;6126;57.908;16.490;2022-08-25T03:34:03;102502.03;;;11.87
12126;BMP180;6126;57.908;16.490;2022-08-25T03:36:29;102506.41;;;11.86
12126;BMP180;6126;57.908;16.490;2022-08-25T03:38:55;102500.38;;;11.84
12126;BMP180;6126;57.908;16.490;2022-08-25T03:41:26;102500.38;;;11.83
12126;BMP180;6126;57.908;16.490;2022-08-25T03:43:58;102494.34;;;11.79
12126;BMP180;6126;57.908;16.490;2022-08-25T03:46:35;102495.28;;;11.77
12126;BMP180;6126;57.908;16.490;2022-08-25T03:49:04;102496.19;;;11.74
12126;BMP180;6126;57.908;16.490;2022-08-25T03:51:36;102487.50;;;11.72
12126;BMP180;6126;57.908;16.490;2022-08-25T03:54:04;102497.19;;;11.69
12126;BMP180;6126;57.908;16.490;2022-08-25T03:56:30;102491.13;;;11.66
12126;BMP180;6126;57.908;16.490;2022-08-25T03:58:56;102497.25;;;11.65
12126;BMP180;6126;57.908;16.490;2022-08-25T04:01:23;102500.72;;;11.67
12126;BMP180;6126;57.908;16.490;2022-08-25T04:03:49;102497.19;;;11.68
12126;BMP180;6126;57.908;16.490;2022-08-25T04:06:17;102501.50;;;11.71
12126;BMP180;6126;57.908;16.490;2022-08-25T04:08:43;102498.88;;;11.71
12126;BMP180;6126;57.908;16.490;2022-08-25T04:11:20;102504.16;;;11.69
12126;BMP180;6126;57.908;16.490;2022-08-25T04:13:47;102496.34;;;11.66
12126;BMP180;6126;57.908;16.490;2022-08-25T04:16:19;102510.38;;;11.65
12126;BMP180;6126;57.908;16.490;2022-08-25T04:18:46;102509.53;;;11.63
12126;BMP180;6126;57.908;16.490;2022-08-25T04:21:12;102506.84;;;11.66
12126;BMP180;6126;57.908;16.490;2022-08-25T04:23:41;102513.75;;;11.70
12126;BMP180;6126;57.908;16.490;2022-08-25T04:26:12;102517.22;;;11.71
12126;BMP180;6126;57.908;16.490;2022-08-25T04:28:39;102504.94;;;11.73
12126;BMP180;6126;57.908;16.490;2022-08-25T04:31:08;102511.06;;;11.72
12126;BMP180;6126;57.908;16.490;2022-08-25T04:33:35;102504.91;;;11.75
12126;BMP180;6126;57.908;16.490;2022-08-25T04:36:03;102503.94;;;11.79
12126;BMP180;6126;57.908;16.490;2022-08-25T04:38:29;102499.53;;;11.82
12126;BMP180;6126;57.908;16.490;2022-08-25T04:41:03;102506.47;;;11.83
12126;BMP180;6126;57.908;16.490;2022-08-25T04:43:30;102502.97;;;11.84
12126;BMP180;6126;57.908;16.490;2022-08-25T04:45:57;102499.41;;;11.87
12126;BMP180;6126;57.908;16.490;2022-08-25T04:48:23;102494.16;;;11.88
12126;BMP180;6126;57.908;16.490;2022-08-25T04:50:49;102506.31;;;11.92
12126;BMP180;6126;57.908;16.490;2022-08-25T04:53:17;102508.84;;;11.95
12126;BMP180;6126;57.908;16.490;2022-08-25T04:55:47;102507.09;;;11.96
12126;BMP180;6126;57.908;16.490;2022-08-25T04:58:15;102502.63;;;11.99
12126;BMP180;6126;57.908;16.490;2022-08-25T05:00:42;102513.88;;;12.05
12126;BMP180;6126;57.908;16.490;2022-08-25T05:03:09;102515.44;;;12.12
12126;BMP180;6126;57.908;16.490;2022-08-25T05:05:37;102512.72;;;12.18
12126;BMP180;6126;57.908;16.490;2022-08-25T05:08:04;102509.91;;;12.26
12126;BMP180;6126;57.908;16.490;2022-08-25T05:10:32;102514.19;;;12.30
12126;BMP180;6126;57.908;16.490;2022-08-25T05:12:58;102513.19;;;12.36
12126;BMP180;6126;57.908;16.490;2022-08-25T05:15:27;102514.75;;;12.43
12126;BMP180;6126;57.908;16.490;2022-08-25T05:18:12;102515.41;;;12.53
12126;BMP180;6126;57.908;16.490;2022-08-25T05:20:38;102516.00;;;12.65
12126;BMP180;6126;57.908;16.490;2022-08-25T05:23:04;102509.59;;;12.78
12126;BMP180;6126;57.908;16.490;2022-08-25T05:25:31;102509.28;;;12.90
12126;BMP180;6126;57.908;16.490;2022-08-25T05:27:57;102507.22;;;13.00
12126;BMP180;6126;57.908;16.490;2022-08-25T05:30:23;102500.00;;;13.10
12126;BMP180;6126;57.908;16.490;2022-08-25T05:32:49;102500.59;;;13.19
12126;BMP180;6126;57.908;16.490;2022-08-25T05:35:15;102508.25;;;13.28
12126;BMP180;6126;57.908;16.490;2022-08-25T05:37:42;102509.81;;;13.35
12126;BMP180;6126;57.908;16.490;2022-08-25T05:40:08;102503.47;;;13.43
12126;BMP180;6126;57.908;16.490;2022-08-25T05:42:35;102504.88;;;13.55
12126;BMP180;6126;57.908;16.490;2022-08-25T05:45:03;102505.44;;;13.65
12126;BMP180;6126;57.908;16.490;2022-08-25T05:47:29;102505.13;;;13.77
12126;BMP180;6126;57.908;16.490;2022-08-25T05:49:54;102502.13;;;13.89
12126;BMP180;6126;57.908;16.490;2022-08-25T05:52:21;102507.94;;;14.00
12126;BMP180;6126;57.908;16.490;2022-08-25T05:54:46;102508.53;;;14.11
12126;BMP180;6126;57.908;16.490;2022-08-25T05:57:12;102512.56;;;14.20
12126;BMP180;6126;57.908;16.490;2022-08-25T05:59:38;102515.78;;;14.31
12126;BMP180;6126;57.908;16.490;2022-08-25T06:02:05;102518.00;;;14.43
12126;BMP180;6126;57.908;16.490;2022-08-25T06:04:50;102514.91;;;14.58
12126;BMP180;6126;57.908;16.490;2022-08-25T06:07:16;102514.44;;;14.73
12126;BMP180;6126;57.908;16.490;2022-08-25T06:09:43;102516.72;;;14.83
12126;BMP180;6126;57.908;16.490;2022-08-25T06:12:11;102513.63;;;14.96
12126;BMP180;6126;57.908;16.490;2022-08-25T06:14:37;102521.94;;;15.12
12126;BMP180;6126;57.908;16.490;2022-08-25T06:17:03;102513.56;;;15.25
12126;BMP180;6126;57.908;16.490;2022-08-25T06:19:29;102509.41;;;15.42
12126;BMP180;6126;57.908;16.490;2022-08-25T06:21:56;102510.56;;;15.58
12126;BMP180;6126;57.908;16.490;2022-08-25T06:24:27;102515.44;;;15.70
12126;BMP180;6126;57.908;16.490;2022-08-25T06:26:54;102522.03;;;15.81
12126;BMP180;6126;57.908;16.490;2022-08-25T06:29:21;102525.94;;;15.94
12126;BMP180;6126;57.908;16.490;2022-08-25T06:31:47;102522.78;;;16.07
12126;BMP180;6126;57.908;16.490;2022-08-25T06:34:15;102527.63;;;16.19
12126;BMP180;6126;57.908;16.490;2022-08-25T06:36:41;102529.66;;;16.34
12126;BMP180;6126;57.908;16.490;2022-08-25T06:39:08;102522.28;;;16.43
12126;BMP180;6126;57.908;16.490;2022-08-25T06:41:35;102521.00;;;16.53
12126;BMP180;6126;57.908;16.490;2022-08-25T06:44:02;102524.91;;;16.64
12126;BMP180;6126;57.908;16.490;2022-08-25T06:46:28;102526.31;;;16.72
12126;BMP180;6126;57.908;16.490;2022-08-25T06:48:56;102517.13;;;16.82
12126;BMP180;6126;57.908;16.490;2022-08-25T06:51:24;102520.06;;;16.96
12126;BMP180;6126;57.908;16.490;2022-08-25T06:53:51;102524.03;;;17.06
12126;BMP180;6126;57.908;16.490;2022-08-25T06:56:20;102522.75;;;17.16
12126;BMP180;6126;57.908;16.490;2022-08-25T06:58:47;102522.41;;;17.25
12126;BMP180;6126;57.908;16.490;2022-08-25T07:01:20;102527.22;;;17.35
12126;BMP180;6126;57.908;16.490;2022-08-25T07:03:56;102521.59;;;17.42
12126;BMP180;6126;57.908;16.490;2022-08-25T07:06:23;102532.59;;;17.53
12126;BMP180;6126;57.908;16.490;2022-08-25T07:08:50;102524.91;;;17.67
12126;BMP180;6126;57.908;16.490;2022-08-25T07:11:16;102532.28;;;17.79
12126;BMP180;6126;57.908;16.490;2022-08-25T07:13:43;102528.28;;;17.89
12126;BMP180;6126;57.908;16.490;2022-08-25T07:16:09;102528.75;;;17.98
12126;BMP180;6126;57.908;16.490;2022-08-25T07:18:40;102531.09;;;18.05
12126;BMP180;6126;57.908;16.490;2022-08-25T07:21:06;102523.66;;;18.13
12126;BMP180;6126;57.908;16.490;2022-08-25T07:23:32;102508.44;;;18.18
12126;BMP180;6126;57.908;16.490;2022-08-25T07:26:12;102514.06;;;18.29
12126;BMP180;6126;57.908;16.490;2022-08-25T07:28:39;102516.97;;;18.41
12126;BMP180;6126;57.908;16.490;2022-08-25T07:31:06;102522.56;;;18.53
12126;BMP180;6126;57.908;16.490;2022-08-25T07:33:32;102517.59;;;18.64
12126;BMP180;6126;57.908;16.490;2022-08-25T07:35:58;102512.88;;;18.71
12126;BMP180;6126;57.908;16.490;2022-08-25T07:38:24;102516.03;;;18.79
12126;BMP180;6126;57.908;16.490;2022-08-25T07:40:50;102531.47;;;18.87
12126;BMP180;6126;57.908;16.490;2022-08-25T07:43:21;102523.13;;;18.96
12126;BMP180;6126;57.908;16.490;2022-08-25T07:45:47;102535.03;;;19.05
12126;BMP180;6126;57.908;16.490;2022-08-25T07:48:14;102519.50;;;19.14
12126;BMP180;6126;57.908;16.490;2022-08-25T07:50:43;102525.22;;;19.23
12126;BMP180;6126;57.908;16.490;2022-08-25T07:53:11;102526.47;;;19.33
12126;BMP180;6126;57.908;16.490;2022-08-25T07:55:38;102525.09;;;19.43
12126;BMP180;6126;57.908;16.490;2022-08-25T07:58:08;102524.53;;;19.53
12126;BMP180;6126;57.908;16.490;2022-08-25T08:00:37;102521.31;;;19.64
12126;BMP180;6126;57.908;16.490;2022-08-25T08:03:06;102515.38;;;19.76
12126;BMP180;6126;57.908;16.490;2022-08-25T08:05:34;102526.22;;;19.88
12126;BMP180;6126;57.908;16.490;2022-08-25T08:08:02;102505.44;;;19.96
12126;BMP180;6126;57.908;16.490;2022-08-25T08:10:28;102509.47;;;20.03
12126;BMP180;6126;57.908;16.490;2022-08-25T08:12:54;102507.00;;;20.15
12126;BMP180;6126;57.908;16.490;2022-08-25T08:15:20;102503.84;;;20.24
12126;BMP180;6126;57.908;16.490;2022-08-25T08:17:46;102499.66;;;20.35
12126;BMP180;6126;57.908;16.490;2022-08-25T08:20:12;102499.06;;;20.45
12126;BMP180;6126;57.908;16.490;2022-08-25T08:22:41;102489.50;;;20.58
12126;BMP180;6126;57.908;16.490;2022-08-25T08:25:09;102492.38;;;20.69
12126;BMP180;6126;57.908;16.490;2022-08-25T08:27:36;102497.19;;;20.78
12126;BMP180;6126;57.908;16.490;2022-08-25T08:30:04;102491.53;;;20.84
12126;BMP180;6126;57.908;16.490;2022-08-25T08:32:30;102491.16;;;20.90
12126;BMP180;6126;57.908;16.490;2022-08-25T08:34:56;102485.31;;;20.99
12126;BMP180;6126;57.908;16.490;2022-08-25T08:37:22;102486.47;;;21.08
12126;BMP180;6126;57.908;16.490;2022-08-25T08:39:48;102476.53;;;21.12
12126;BMP180;6126;57.908;16.490;2022-08-25T08:45:36;102482.44;;;21.17
12126;BMP180;6126;57.908;16.490;2022-08-25T08:51:22;102473.72;;;21.29
12126;BMP180;6126;57.908;16.490;2022-08-25T08:56:40;102462.41;;;21.54
12126;BMP180;6126;57.908;16.490;2022-08-25T08:59:16;102467.06;;;21.64
12126;BMP180;6126;57.908;16.490;2022-08-25T09:01:52;102462.69;;;21.77
12126;BMP180;6126;57.908;16.490;2022-08-25T09:04:52;102455.84;;;21.87
12126;BMP180;6126;57.908;16.490;2022-08-25T09:07:25;102459.16;;;21.91
12126;BMP180;6126;57.908;16.490;2022-08-25T09:09:55;102446.97;;;21.87
12126;BMP180;6126;57.908;16.490;2022-08-25T09:12:45;102444.16;;;21.90
12126;BMP180;6126;57.908;16.490;2022-08-25T09:18:50;102435.38;;;22.15
12126;BMP180;6126;57.908;16.490;2022-08-25T09:24:23;102427.94;;;22.34
12126;BMP180;6126;57.908;16.490;2022-08-25T09:32:16;102433.00;;;22.77
12126;BMP180;6126;57.908;16.490;2022-08-25T09:34:43;102425.50;;;22.83
12126;BMP180;6126;57.908;16.490;2022-08-25T09:37:10;102429.22;;;22.93
12126;BMP180;6126;57.908;16.490;2022-08-25T09:39:36;102436.06;;;22.97
12126;BMP180;6126;57.908;16.490;2022-08-25T09:42:03;102427.09;;;22.98
12126;BMP180;6126;57.908;16.490;2022-08-25T09:44:42;102431.59;;;22.97
12126;BMP180;6126;57.908;16.490;2022-08-25T09:47:24;102431.59;;;22.97
12126;BMP180;6126;57.908;16.490;2022-08-25T09:50:01;102429.25;;;23.05
12126;BMP180;6126;57.908;16.490;2022-08-25T09:57:52;102422.25;;;23.29
12126;BMP180;6126;57.908;16.490;2022-08-25T10:01:06;102420.31;;;23.19
12126;BMP180;6126;57.908;16.490;2022-08-25T10:03:36;102420.97;;;23.22
12126;BMP180;6126;57.908;16.490;2022-08-25T10:06:11;102408.06;;;23.28
12126;BMP180;6126;57.908;16.490;2022-08-25T10:08:52;102416.06;;;23.41
12126;BMP180;6126;57.908;16.490;2022-08-25T10:11:41;102409.91;;;23.52
12126;BMP180;6126;57.908;16.490;2022-08-25T10:14:33;102416.84;;;23.67
12126;BMP180;6126;57.908;16.490;2022-08-25T10:17:21;102413.53;;;23.52
12126;BMP180;6126;57.908;16.490;2022-08-25T10:22:40;102396.69;;;23.51
12126;BMP180;6126;57.908;16.490;2022-08-25T10:25:12;102388.53;;;23.52
12126;BMP180;6126;57.908;16.490;2022-08-25T10:30:28;102376.13;;;23.76
12126;BMP180;6126;57.908;16.490;2022-08-25T10:38:41;102369.22;;;23.97
12126;BMP180;6126;57.908;16.490;2022-08-25T10:51:02;102354.84;;;24.10
12126;BMP180;6126;57.908;16.490;2022-08-25T10:56:33;102340.31;;;24.26
12126;BMP180;6126;57.908;16.490;2022-08-25T11:08:35;102336.97;;;24.46
12126;BMP180;6126;57.908;16.490;2022-08-25T11:11:31;102333.59;;;24.44
12126;BMP180;6126;57.908;16.490;2022-08-25T11:14:11;102332.00;;;24.42
12126;BMP180;6126;57.908;16.490;2022-08-25T11:19:48;102324.06;;;24.29
12126;BMP180;6126;57.908;16.490;2022-08-25T11:22:24;102326.22;;;24.24
12126;BMP180;6126;57.908;16.490;2022-08-25T11:25:38;102323.63;;;24.23
12126;BMP180;6126;57.908;16.490;2022-08-25T11:28:52;102318.69;;;24.29
12126;BMP180;6126;57.908;16.490;2022-08-25T11:31:21;102309.25;;;24.36
12126;BMP180;6126;57.908;16.490;2022-08-25T11:33:49;102308.91;;;24.41
12126;BMP180;6126;57.908;16.490;2022-08-25T11:36:31;102308.91;;;24.41
12126;BMP180;6126;57.908;16.490;2022-08-25T11:42:30;102295.94;;;24.47
12126;BMP180;6126;57.908;16.490;2022-08-25T11:50:34;102287.94;;;24.58
12126;BMP180;6126;57.908;16.490;2022-08-25T11:53:21;102270.25;;;24.68
12126;BMP180;6126;57.908;16.490;2022-08-25T11:55:53;102271.19;;;24.67
12126;BMP180;6126;57.908;16.490;2022-08-25T11:58:45;102269.50;;;24.66
12126;BMP180;6126;57.908;16.490;2022-08-25T12:04:40;102265.00;;;24.77
12126;BMP180;6126;57.908;16.490;2022-08-25T12:15:53;102270.97;;;24.13
12126;BMP180;6126;57.908;16.490;2022-08-25T12:23:44;102265.59;;;24.25
12126;BMP180;6126;57.908;16.490;2022-08-25T12:26:53;102265.03;;;24.32
12126;BMP180;6126;57.908;16.490;2022-08-25T12:29:47;102270.91;;;24.48
12126;BMP180;6126;57.908;16.490;2022-08-25T12:35:31;102258.75;;;24.44
12126;BMP180;6126;57.908;16.490;2022-08-25T12:38:10;102255.59;;;24.39
12126;BMP180;6126;57.908;16.490;2022-08-25T12:43:31;102259.94;;;24.17
12126;BMP180;6126;57.908;16.490;2022-08-25T13:00:31;102245.19;;;24.58
12126;BMP180;6126;57.908;16.490;2022-08-25T13:12:31;102239.41;;;24.17
12126;BMP180;6126;57.908;16.490;2022-08-25T13:14:59;102242.03;;;24.19
12126;BMP180;6126;57.908;16.490;2022-08-25T13:17:30;102229.19;;;24.12
12126;BMP180;6126;57.908;16.490;2022-08-25T13:20:22;102234.06;;;24.17
12126;BMP180;6126;57.908;16.490;2022-08-25T13:22:52;102232.97;;;24.32
12126;BMP180;6126;57.908;16.490;2022-08-25T13:25:23;102232.03;;;24.44
12126;BMP180;6126;57.908;16.490;2022-08-25T13:27:57;102233.72;;;24.45
12126;BMP180;6126;57.908;16.490;2022-08-25T13:30:35;102225.72;;;24.45
12126;BMP180;6126;57.908;16.490;2022-08-25T13:33:20;102221.34;;;24.44
12126;BMP180;6126;57.908;16.490;2022-08-25T13:35:50;102214.00;;;24.35
12126;BMP180;6126;57.908;16.490;2022-08-25T13:38:36;102227.38;;;24.35
12126;BMP180;6126;57.908;16.490;2022-08-25T13:41:08;102216.06;;;24.32
12126;BMP180;6126;57.908;16.490;2022-08-25T13:43:36;102219.84;;;24.29
12126;BMP180;6126;57.908;16.490;2022-08-25T13:46:04;102206.94;;;24.23
12126;BMP180;6126;57.908;16.490;2022-08-25T13:48:38;102200.56;;;24.13
12126;BMP180;6126;57.908;16.490;2022-08-25T13:51:25;102202.78;;;23.96
12126;BMP180;6126;57.908;16.490;2022-08-25T13:54:04;102203.41;;;24.00
12126;BMP180;6126;57.908;16.490;2022-08-25T13:56:40;102202.25;;;24.14
12126;BMP180;6126;57.908;16.490;2022-08-25T13:59:24;102185.97;;;24.17
12126;BMP180;6126;57.908;16.490;2022-08-25T14:01:53;102194.97;;;24.16
12126;BMP180;6126;57.908;16.490;2022-08-25T14:06:47;102180.56;;;24.19
12126;BMP180;6126;57.908;16.490;2022-08-25T14:09:17;102182.75;;;24.25
12126;BMP180;6126;57.908;16.490;2022-08-25T14:11:55;102182.41;;;24.29
12126;BMP180;6126;57.908;16.490;2022-08-25T14:16:50;102175.09;;;24.20
12126;BMP180;6126;57.908;16.490;2022-08-25T14:19:21;102177.25;;;24.15
12126;BMP180;6126;57.908;16.490;2022-08-25T14:21:48;102171.84;;;24.05
12126;BMP180;6126;57.908;16.490;2022-08-25T14:24:21;102195.34;;;23.89
12126;BMP180;6126;57.908;16.490;2022-08-25T14:26:49;102201.16;;;23.83
12126;BMP180;6126;57.908;16.490;2022-08-25T14:29:16;102184.16;;;23.84
12126;BMP180;6126;57.908;16.490;2022-08-25T14:31:44;102190.94;;;23.77
12126;BMP180;6126;57.908;16.490;2022-08-25T14:34:18;102186.72;;;23.62
12126;BMP180;6126;57.908;16.490;2022-08-25T14:36:47;102173.72;;;23.58
12126;BMP180;6126;57.908;16.490;2022-08-25T14:39:13;102169.34;;;23.57
12126;BMP180;6126;57.908;16.490;2022-08-25T14:41:42;102163.50;;;23.52
12126;BMP180;6126;57.908;16.490;2022-08-25T14:44:09;102158.59;;;23.46
12126;BMP180;6126;57.908;16.490;2022-08-25T14:46:41;102155.19;;;23.44
12126;BMP180;6126;57.908;16.490;2022-08-25T14:49:12;102153.34;;;23.45
12126;BMP180;6126;57.908;16.490;2022-08-25T14:51:40;102146.03;;;23.36
12126;BMP180;6126;57.908;16.490;2022-08-25T14:54:12;102140.28;;;23.29
12126;BMP180;6126;57.908;16.490;2022-08-25T14:56:40;102142.63;;;23.34
12126;BMP180;6126;57.908;16.490;2022-08-25T14:59:06;102130.97;;;23.35
12126;BMP180;6126;57.908;16.490;2022-08-25T15:01:33;102133.25;;;23.28
12126;BMP180;6126;57.908;16.490;2022-08-25T15:04:21;102126.44;;;23.24
12126;BMP180;6126;57.908;16.490;2022-08-25T15:06:54;102129.03;;;23.14
12126;BMP180;6126;57.908;16.490;2022-08-25T15:09:20;102130.84;;;23.13
12126;BMP180;6126;57.908;16.490;2022-08-25T15:11:51;102131.31;;;23.07
12126;BMP180;6126;57.908;16.490;2022-08-25T15:14:21;102137.19;;;23.00
12126;BMP180;6126;57.908;16.490;2022-08-25T15:16:53;102119.53;;;22.87
12126;BMP180;6126;57.908;16.490;2022-08-25T15:19:24;102121.88;;;22.91
12126;BMP180;6126;57.908;16.490;2022-08-25T15:21:51;102120.66;;;22.95
12126;BMP180;6126;57.908;16.490;2022-08-25T15:24:19;102120.03;;;22.91
12126;BMP180;6126;57.908;16.490;2022-08-25T15:26:51;102123.34;;;22.95
12126;BMP180;6126;57.908;16.490;2022-08-25T15:29:18;102125.69;;;22.99
12126;BMP180;6126;57.908;16.490;2022-08-25T15:31:45;102120.88;;;23.04
12126;BMP180;6126;57.908;16.490;2022-08-25T15:34:12;102125.22;;;23.05
12126;BMP180;6126;57.908;16.490;2022-08-25T15:36:39;102128.88;;;23.04
12126;BMP180;6126;57.908;16.490;2022-08-25T15:39:05;102127.91;;;22.93
12126;BMP180;6126;57.908;16.490;2022-08-25T15:41:32;102132.09;;;22.85
12126;BMP180;6126;57.908;16.490;2022-08-25T15:43:58;102116.00;;;22.86
12126;BMP180;6126;57.908;16.490;2022-08-25T15:46:27;102114.41;;;22.84
12126;BMP180;6126;57.908;16.490;2022-08-25T15:48:56;102113.56;;;22.71
12126;BMP180;6126;57.908;16.490;2022-08-25T15:51:22;102111.03;;;22.57
12126;BMP180;6126;57.908;16.490;2022-08-25T15:53:48;102111.44;;;22.51
12126;BMP180;6126;57.908;16.490;2022-08-25T15:56:14;102118.03;;;22.46
12126;BMP180;6126;57.908;16.490;2022-08-25T15:58:47;102115.28;;;22.35
12126;BMP180;6126;57.908;16.490;2022-08-25T16:01:17;102123.59;;;22.30
12126;BMP180;6126;57.908;16.490;2022-08-25T16:03:43;102126.16;;;22.32
12126;BMP180;6126;57.908;16.490;2022-08-25T16:06:09;102119.53;;;22.25
12126;BMP180;6126;57.908;16.490;2022-08-25T16:08:37;102134.13;;;22.20
12126;BMP180;6126;57.908;16.490;2022-08-25T16:11:05;102128.94;;;22.18
12126;BMP180;6126;57.908;16.490;2022-08-25T16:13:31;102134.78;;;22.11
12126;BMP180;6126;57.908;16.490;2022-08-25T16:15:58;102127.38;;;22.02
12126;BMP180;6126;57.908;16.490;2022-08-25T16:18:25;102127.56;;;21.99
12126;BMP180;6126;57.908;16.490;2022-08-25T16:20:51;102120.09;;;21.92
12126;BMP180;6126;57.908;16.490;2022-08-25T16:23:18;102121.91;;;21.91
12126;BMP180;6126;57.908;16.490;2022-08-25T16:25:46;102119.69;;;21.85
12126;BMP180;6126;57.908;16.490;2022-08-25T16:28:15;102107.53;;;21.81